Time;durP1;ratioP1;P1;durP2;ratioP2;P2;SDS_P1;SDS_P2;PMS_P1;PMS_P2;Temp;Humidity;BMP_temperature;BMP_pressure;BME280_temperature;BME280_humidity;BME280_pressure;Samples;Min_cycle;Max_cycle;Signal;HPM_P1;HPM_P2
2023/07/15 00:01:53;;;;;;;;;1.00;1.00;;;;;27.39;70.65;100264.94;5056845;28;70854;-77
2023/07/15 00:04:18;;;;;;;;;2.00;1.00;;;;;27.39;71.03;100273.94;5057245;28;65194;-75
2023/07/15 00:06:44;;;;;;;;;0.00;0.00;;;;;27.36;71.76;100271.41;5057480;28;58394;-74
2023/07/15 00:09:09;;;;;;;;;0.00;0.00;;;;;27.32;72.49;100269.00;5057787;28;45354;-74
2023/07/15 00:11:38;;;;;;;;;2.67;1.00;;;;;27.27;72.88;100272.06;5056677;28;45566;-76
2023/07/15 00:14:10;;;;;;;;;0.67;0.67;;;;;27.22;73.97;100263.34;5056242;28;45467;-75
2023/07/15 00:16:36;;;;;;;;;0.00;0.00;;;;;27.17;74.48;100254.66;5056520;28;45485;-75
2023/07/15 00:19:01;;;;;;;;;2.00;1.00;;;;;27.15;74.70;100262.88;5057131;28;61584;-73
2023/07/15 00:21:30;;;;;;;;;2.33;1.00;;;;;27.12;75.88;100263.09;5057937;28;45915;-74
2023/07/15 00:23:57;;;;;;;;;2.33;1.33;;;;;27.08;77.14;100253.44;5053301;28;45491;-75
2023/07/15 00:26:26;;;;;;;;;3.00;1.00;;;;;27.03;78.29;100265.50;5058020;28;45356;-76
2023/07/15 00:28:51;;;;;;;;;2.00;1.00;;;;;26.98;78.42;100254.97;5057842;28;45382;-74
2023/07/15 00:31:18;;;;;;;;;1.00;1.00;;;;;26.93;78.47;100262.53;5056670;28;68856;-75
2023/07/15 00:33:44;;;;;;;;;1.00;1.00;;;;;26.89;79.07;100259.16;5057773;28;45173;-74
2023/07/15 00:36:11;;;;;;;;;2.00;1.00;;;;;26.86;79.67;100262.09;5056669;28;45811;-77
2023/07/15 00:38:36;;;;;;;;;0.00;0.00;;;;;26.90;79.89;100279.03;5057523;28;45421;-76
2023/07/15 00:41:03;;;;;;;;;1.00;1.00;;;;;26.88;81.03;100275.53;5057479;28;46284;-74
2023/07/15 00:46:18;;;;;;;;;2.67;0.67;;;;;26.82;82.20;100275.94;5054183;28;45647;-73
2023/07/15 00:48:51;;;;;;;;;1.00;1.00;;;;;26.80;82.46;100277.88;5057601;28;45444;-75
2023/07/15 00:51:16;;;;;;;;;0.67;0.67;;;;;26.77;82.70;100272.66;5057400;28;46576;-75
2023/07/15 00:53:42;;;;;;;;;1.00;1.00;;;;;26.74;83.89;100273.72;5056309;28;51040;-73
2023/07/15 00:56:08;;;;;;;;;0.00;0.00;;;;;26.71;84.69;100276.63;5055784;28;45549;-75
2023/07/15 00:58:34;;;;;;;;;1.00;1.00;;;;;26.67;84.99;100266.94;5056223;28;45593;-75
2023/07/15 01:00:59;;;;;;;;;1.00;1.00;;;;;26.66;85.61;100294.16;5054981;28;46971;-75
2023/07/15 01:03:25;;;;;;;;;1.00;1.00;;;;;26.60;86.69;100282.75;5054136;28;60248;-75
2023/07/15 01:05:51;;;;;;;;;1.00;1.00;;;;;26.57;87.49;100279.34;5055627;28;63211;-74
2023/07/15 01:08:17;;;;;;;;;1.00;1.00;;;;;26.55;88.09;100278.59;5057349;28;45560;-74
2023/07/15 01:10:42;;;;;;;;;0.00;0.00;;;;;26.51;88.97;100272.50;5056823;28;46386;-74
2023/07/15 01:13:09;;;;;;;;;1.33;0.00;;;;;26.50;88.69;100267.19;5056993;28;45371;-74
2023/07/15 01:15:34;;;;;;;;;1.00;1.00;;;;;26.48;88.91;100266.41;5056413;28;58742;-74
2023/07/15 01:18:00;;;;;;;;;0.33;0.33;;;;;26.51;89.13;100272.50;5057343;28;45558;-74
2023/07/15 01:20:25;;;;;;;;;1.67;0.00;;;;;26.51;89.31;100274.34;5055645;28;68265;-74
2023/07/15 01:22:51;;;;;;;;;0.33;0.33;;;;;26.49;89.04;100274.44;5052384;28;45387;-74
2023/07/15 01:25:16;;;;;;;;;1.67;0.67;;;;;26.48;89.87;100274.53;5056702;28;45306;-75
2023/07/15 01:27:42;;;;;;;;;1.00;1.00;;;;;26.45;90.14;100281.00;5055981;28;45436;-75
2023/07/15 01:30:09;;;;;;;;;1.00;1.00;;;;;26.42;90.29;100285.72;5056611;28;46510;-76
2023/07/15 01:32:34;;;;;;;;;0.67;0.67;;;;;26.37;91.57;100283.31;5056646;28;45399;-74
2023/07/15 01:35:00;;;;;;;;;1.00;1.00;;;;;26.32;92.76;100286.31;5056951;28;45489;-76
2023/07/15 01:37:25;;;;;;;;;1.00;0.00;;;;;26.25;92.72;100265.13;5056449;28;53698;-74
2023/07/15 01:39:50;;;;;;;;;2.00;1.00;;;;;26.21;94.83;100271.72;5055881;28;66439;-74
2023/07/15 01:42:17;;;;;;;;;1.33;0.00;;;;;26.16;95.52;100272.00;5056606;28;45366;-73
2023/07/15 01:44:42;;;;;;;;;0.00;0.00;;;;;26.06;96.75;100268.13;5056348;28;45395;-76
2023/07/15 01:47:07;;;;;;;;;1.67;0.00;;;;;26.03;96.75;100260.19;5056256;28;50622;-74
2023/07/15 01:49:32;;;;;;;;;0.00;0.00;;;;;26.00;98.32;100261.25;5052884;28;53391;-74
2023/07/15 01:51:58;;;;;;;;;0.33;0.33;;;;;25.96;97.94;100251.59;5055414;28;63575;-74
2023/07/15 01:54:23;;;;;;;;;0.00;0.00;;;;;25.93;99.35;100256.31;5055703;28;52369;-74
2023/07/15 01:56:48;;;;;;;;;1.00;0.00;;;;;25.85;99.25;100241.44;5056372;28;45414;-76
2023/07/15 01:59:14;;;;;;;;;1.67;0.00;;;;;25.84;100.00;100238.84;5055209;28;70224;-75
2023/07/15 02:01:41;;;;;;;;;0.33;0.00;;;;;25.83;100.00;100234.38;5056374;28;45409;-76
2023/07/15 02:04:06;;;;;;;;;0.67;0.67;;;;;25.78;100.00;100234.69;5056192;28;45342;-77
2023/07/15 02:06:31;;;;;;;;;1.00;1.00;;;;;25.77;100.00;100241.03;5056426;28;45343;-77
2023/07/15 02:08:57;;;;;;;;;0.00;0.00;;;;;25.71;100.00;100224.28;5055323;28;64237;-76
2023/07/15 02:11:22;;;;;;;;;0.33;0.33;;;;;25.69;100.00;100229.78;5055342;28;67386;-77
2023/07/15 02:13:50;;;;;;;;;2.00;0.00;;;;;25.67;100.00;100233.53;5046870;28;45449;-76
2023/07/15 02:16:15;;;;;;;;;0.00;0.00;;;;;25.67;100.00;100233.53;5056172;28;45303;-77
2023/07/15 02:18:40;;;;;;;;;0.33;0.33;;;;;25.64;100.00;100236.44;5055802;28;47523;-76
2023/07/15 02:21:06;;;;;;;;;0.00;0.00;;;;;25.59;100.00;100223.19;5055440;28;67029;-76
2023/07/15 02:23:31;;;;;;;;;0.00;0.00;;;;;25.59;100.00;100228.63;5055210;28;62286;-76
2023/07/15 02:25:56;;;;;;;;;0.00;0.00;;;;;25.57;100.00;100234.13;5056189;28;45311;-75
2023/07/15 02:28:26;;;;;;;;;0.33;0.00;;;;;25.57;100.00;100233.25;5055932;28;46462;-76
2023/07/15 02:30:51;;;;;;;;;0.00;0.00;;;;;25.55;100.00;100233.31;5055666;28;45456;-76
2023/07/15 02:33:17;;;;;;;;;0.00;0.00;;;;;25.56;100.00;100232.34;5056326;28;45468;-78
2023/07/15 02:35:42;;;;;;;;;0.00;0.00;;;;;25.55;100.00;100236.03;5055953;28;57679;-76
2023/07/15 02:38:09;;;;;;;;;1.00;1.00;;;;;25.55;100.00;100224.34;5055791;28;46678;-76
2023/07/15 02:40:34;;;;;;;;;0.00;0.00;;;;;25.53;100.00;100232.56;5055829;28;45357;-77
2023/07/15 02:43:00;;;;;;;;;2.00;1.00;;;;;25.53;100.00;100235.25;5054677;28;45527;-75
2023/07/15 02:45:26;;;;;;;;;0.00;0.00;;;;;25.53;100.00;100237.97;5053370;28;45383;-76
2023/07/15 02:47:51;;;;;;;;;0.33;0.00;;;;;25.54;100.00;100252.34;5055527;28;46135;-76
2023/07/15 02:50:18;;;;;;;;;0.00;0.00;;;;;25.54;100.00;100258.63;5054804;28;68605;-76
2023/07/15 02:52:45;;;;;;;;;1.00;1.00;;;;;25.51;100.00;100252.53;5055529;28;45704;-75
2023/07/15 02:55:10;;;;;;;;;0.00;0.00;;;;;25.49;100.00;100252.63;5056031;28;45304;-76
2023/07/15 02:57:36;;;;;;;;;0.00;0.00;;;;;25.49;100.00;100254.47;5054774;28;59599;-76
2023/07/15 03:00:07;;;;;;;;;2.00;0.00;;;;;25.46;100.00;100249.22;5055729;28;45346;-76
2023/07/15 03:02:33;;;;;;;;;0.33;0.33;;;;;25.47;100.00;100241.03;5055430;28;45464;-76
2023/07/15 03:04:58;;;;;;;;;2.00;1.00;;;;;25.43;100.00;100246.72;5055022;28;64749;-76
2023/07/15 03:07:23;;;;;;;;;1.00;1.00;;;;;25.41;100.00;100238.72;5055559;28;45380;-76
2023/07/15 03:09:49;;;;;;;;;0.33;0.33;;;;;25.38;100.00;100238.03;5054291;28;68246;-76
2023/07/15 03:12:14;;;;;;;;;0.00;0.00;;;;;25.37;100.00;100242.56;5054862;28;62145;-76
2023/07/15 03:14:41;;;;;;;;;0.00;0.00;;;;;25.36;100.00;100248.06;5054851;28;49906;-76
2023/07/15 03:17:08;;;;;;;;;0.00;0.00;;;;;25.36;100.00;100243.53;5055193;28;45502;-76
2023/07/15 03:19:33;;;;;;;;;0.00;0.00;;;;;25.39;100.00;100259.53;5055333;28;45397;-76
2023/07/15 03:21:59;;;;;;;;;1.00;1.00;;;;;25.36;100.00;100254.34;5055013;28;53070;-76
2023/07/15 03:24:25;;;;;;;;;2.00;0.00;;;;;25.29;100.00;100251.09;5055582;28;45593;-76
2023/07/15 03:26:51;;;;;;;;;1.00;1.00;;;;;25.25;100.00;100243.28;5058444;28;46476;-76
2023/07/15 03:29:17;;;;;;;;;2.00;0.00;;;;;25.24;100.00;100236.13;5058805;28;45401;-76
2023/07/15 03:31:42;;;;;;;;;0.00;0.00;;;;;25.21;100.00;100245.31;5058849;28;45432;-76
2023/07/15 03:34:07;;;;;;;;;0.00;0.00;;;;;25.20;100.00;100250.81;5059093;28;45280;-76
2023/07/15 03:36:33;;;;;;;;;1.00;1.00;;;;;25.19;100.00;100249.91;5057772;28;66925;-75
2023/07/15 03:38:58;;;;;;;;;0.67;0.67;;;;;25.18;100.00;100255.41;5058866;28;45367;-76
2023/07/15 03:41:23;;;;;;;;;0.00;0.00;;;;;25.13;100.00;100255.66;5058104;28;60259;-77
2023/07/15 03:43:49;;;;;;;;;1.00;1.00;;;;;25.13;100.00;100268.31;5053470;28;45269;-76
2023/07/15 03:46:14;;;;;;;;;0.00;0.00;;;;;25.14;100.00;100272.75;5056238;28;63190;-75
2023/07/15 03:48:39;;;;;;;;;0.00;0.00;;;;;25.13;100.00;100260.22;5057412;28;64196;-76
2023/07/15 03:51:06;;;;;;;;;3.00;1.00;;;;;25.13;100.00;100271.88;5057845;28;54793;-76
2023/07/15 03:53:32;;;;;;;;;1.00;1.00;;;;;25.11;100.00;100273.81;5057283;28;45570;-76
2023/07/15 03:55:57;;;;;;;;;1.00;1.00;;;;;25.10;100.00;100276.63;5057165;28;45355;-76
2023/07/15 03:58:22;;;;;;;;;0.00;0.00;;;;;25.04;100.00;100264.31;5057327;28;68614;-76
2023/07/15 04:00:48;;;;;;;;;1.00;1.00;;;;;25.03;100.00;100249.91;5058011;28;46013;-76
2023/07/15 04:03:13;;;;;;;;;2.00;1.00;;;;;24.99;100.00;100237.56;5058279;28;45482;-79
2023/07/15 04:05:38;;;;;;;;;2.67;1.00;;;;;24.94;100.00;100231.53;5057322;28;69884;-76
2023/07/15 04:08:04;;;;;;;;;0.00;0.00;;;;;24.94;100.00;100236.06;5058142;28;45280;-77
2023/07/15 04:10:29;;;;;;;;;0.33;0.33;;;;;24.92;100.00;100241.53;5058220;28;45595;-78
2023/07/15 04:12:55;;;;;;;;;2.00;0.00;;;;;24.94;100.00;100249.59;5056884;28;45586;-76
2023/07/15 04:15:20;;;;;;;;;2.00;1.00;;;;;24.94;100.00;100263.97;5057531;28;46330;-76
2023/07/15 04:17:45;;;;;;;;;1.00;1.00;;;;;24.95;100.00;100294.53;5057859;28;45433;-75
2023/07/15 04:20:16;;;;;;;;;0.33;0.33;;;;;24.96;100.00;100307.94;5058195;28;45575;-76
2023/07/15 04:22:42;;;;;;;;;1.00;1.00;;;;;24.99;100.00;100309.63;5057899;28;45339;-77
2023/07/15 04:25:10;;;;;;;;;1.00;1.00;;;;;24.98;100.00;100280.84;5057590;28;45935;-78
2023/07/15 04:27:36;;;;;;;;;0.00;0.00;;;;;24.99;100.00;100280.78;5057946;28;45426;-74
2023/07/15 04:30:03;;;;;;;;;0.00;0.00;;;;;24.97;100.00;100263.75;5056526;28;45483;-76
2023/07/15 04:32:28;;;;;;;;;0.00;0.00;;;;;24.95;100.00;100254.88;5057995;28;45609;-76
2023/07/15 04:34:53;;;;;;;;;0.00;0.00;;;;;24.89;100.00;100257.06;5056819;28;67601;-76
2023/07/15 04:37:20;;;;;;;;;3.00;0.00;;;;;24.86;100.00;100254.53;5056431;28;65252;-76
2023/07/15 04:39:45;;;;;;;;;1.00;1.00;;;;;24.82;100.00;100243.03;5057924;28;45438;-75
2023/07/15 04:42:10;;;;;;;;;2.00;0.33;;;;;24.83;100.00;100239.41;5057585;28;50601;-76
2023/07/15 04:44:36;;;;;;;;;0.00;0.00;;;;;24.82;100.00;100216.94;5049853;28;67993;-77
2023/07/15 04:47:01;;;;;;;;;0.00;0.00;;;;;24.79;100.00;100222.50;5057379;28;45312;-76
2023/07/15 04:49:26;;;;;;;;;0.67;0.00;;;;;24.78;100.00;100226.16;5057488;28;45415;-76
2023/07/15 04:51:52;;;;;;;;;0.00;0.00;;;;;24.75;100.00;100218.22;5056747;28;60945;-78
2023/07/15 04:54:17;;;;;;;;;0.67;0.67;;;;;24.76;100.00;100238.00;5064174;28;45626;-76
2023/07/15 04:56:43;;;;;;;;;1.00;1.00;;;;;24.73;100.00;100238.19;5056582;28;66894;-76
2023/07/15 04:59:08;;;;;;;;;1.00;0.00;;;;;24.68;100.00;100253.78;5057148;28;45351;-76
2023/07/15 05:01:33;;;;;;;;;0.00;0.00;;;;;24.70;100.00;100249.16;5056708;28;60854;-76
2023/07/15 05:04:01;;;;;;;;;0.67;0.67;;;;;24.70;100.00;100232.94;5056968;28;46342;-78
2023/07/15 05:06:27;;;;;;;;;0.00;0.00;;;;;24.71;100.00;100231.97;5057364;28;45400;-76
2023/07/15 05:08:53;;;;;;;;;1.00;0.00;;;;;24.72;100.00;100225.66;5057157;28;45446;-76
2023/07/15 05:11:19;;;;;;;;;0.00;0.00;;;;;24.76;100.00;100238.00;5054948;28;64860;-76
2023/07/15 05:16:19;;;;;;;;;0.33;0.00;;;;;24.80;100.00;100239.56;5059579;22;45474;-79
2023/07/15 05:18:45;;;;;;;;;0.00;0.00;;;;;24.80;100.00;100250.38;5031087;28;47076;-76
2023/07/15 05:21:10;;;;;;;;;0.00;0.00;;;;;24.77;100.00;100240.63;5031260;28;60766;-76
2023/07/15 05:23:35;;;;;;;;;0.67;0.67;;;;;24.74;100.00;100237.22;5033660;28;67495;-76
2023/07/15 05:26:01;;;;;;;;;0.00;0.00;;;;;24.76;100.00;100238.84;5036397;28;63684;-76
2023/07/15 05:28:32;;;;;;;;;1.33;1.00;;;;;24.76;100.00;100238.00;5035930;28;61203;-76
2023/07/15 05:30:59;;;;;;;;;0.33;0.33;;;;;24.79;100.00;100246.78;5030366;28;45543;-77
2023/07/15 05:33:24;;;;;;;;;0.00;0.00;;;;;24.82;100.00;100251.13;5035008;28;46545;-76
2023/07/15 05:35:49;;;;;;;;;2.00;0.00;;;;;24.81;100.00;100262.91;5035834;28;70139;-78
2023/07/15 05:38:15;;;;;;;;;1.00;1.00;;;;;24.75;100.00;100263.25;5035676;28;65099;-76
2023/07/15 05:40:41;;;;;;;;;1.00;1.00;;;;;24.66;100.00;100270.06;5036756;28;45411;-75
2023/07/15 05:43:07;;;;;;;;;2.00;0.67;;;;;24.59;100.00;100271.34;5036132;28;46890;-75
2023/07/15 05:45:32;;;;;;;;;2.00;0.33;;;;;24.51;100.00;100282.59;5029346;28;45482;-76
2023/07/15 05:47:57;;;;;;;;;1.00;1.00;;;;;24.47;100.00;100297.19;5034883;28;59930;-76
2023/07/15 05:50:23;;;;;;;;;0.00;0.00;;;;;24.42;100.00;100290.31;5033342;28;55769;-76
2023/07/15 05:52:48;;;;;;;;;1.67;0.00;;;;;24.40;100.00;100297.63;5026994;28;46393;-75
2023/07/15 05:55:13;;;;;;;;;1.00;1.00;;;;;24.37;100.00;100301.34;5036399;28;45535;-76
2023/07/15 05:57:39;;;;;;;;;1.67;1.00;;;;;24.35;100.00;100315.88;5036202;28;45412;-76
2023/07/15 06:00:08;;;;;;;;;1.67;1.67;;;;;24.33;100.00;100317.75;5035585;28;63106;-76
2023/07/15 06:02:34;;;;;;;;;0.00;0.00;;;;;24.27;100.00;100322.53;5035566;28;46624;-76
2023/07/15 06:04:59;;;;;;;;;2.00;1.00;;;;;24.22;100.00;100324.59;5036038;28;45336;-74
2023/07/15 06:07:24;;;;;;;;;1.00;1.00;;;;;24.21;100.00;100313.91;5035829;28;57537;-78
2023/07/15 06:09:52;;;;;;;;;0.67;0.67;;;;;24.16;100.00;100308.75;5031081;28;45519;-78
2023/07/15 06:12:17;;;;;;;;;2.00;0.67;;;;;24.15;100.00;100320.50;5036080;28;46705;-76
2023/07/15 06:14:42;;;;;;;;;0.00;0.00;;;;;24.17;100.00;100329.38;5033479;28;63637;-75
2023/07/15 06:17:08;;;;;;;;;1.00;1.00;;;;;24.21;100.00;100311.22;5033805;28;63690;-78
2023/07/15 06:19:33;;;;;;;;;1.00;1.00;;;;;24.26;100.00;100342.38;5033019;28;55308;-76
2023/07/15 06:21:58;;;;;;;;;1.00;1.00;;;;;24.26;100.00;100342.38;5031138;28;61780;-74
2023/07/15 06:24:24;;;;;;;;;0.33;0.33;;;;;24.25;100.00;100343.34;5025925;28;45643;-73
2023/07/15 06:26:49;;;;;;;;;2.33;1.00;;;;;24.21;100.00;100319.28;5034162;28;45475;-74
2023/07/15 06:29:14;;;;;;;;;4.00;1.00;;;;;24.26;100.00;100325.31;5031403;28;47443;-73
2023/07/15 06:31:40;;;;;;;;;1.00;1.00;;;;;24.32;100.00;100335.78;5026723;28;68708;-76
2023/07/15 06:34:06;;;;;;;;;1.67;0.67;;;;;24.34;100.00;100331.16;5029029;28;45473;-74
2023/07/15 06:36:31;;;;;;;;;1.00;1.00;;;;;24.40;100.00;100338.13;5031134;28;58380;-76
2023/07/15 06:38:56;;;;;;;;;3.00;2.00;;;;;24.42;100.00;100350.56;5019389;28;61095;-73
2023/07/15 06:41:22;;;;;;;;;2.00;0.67;;;;;24.47;100.00;100351.19;5024514;28;71222;-74
2023/07/15 06:43:47;;;;;;;;;0.00;0.00;;;;;24.50;100.00;100351.03;5022314;28;67189;-74
2023/07/15 06:46:12;;;;;;;;;1.33;1.33;;;;;24.61;100.00;100366.63;5027912;28;53110;-73
2023/07/15 06:48:38;;;;;;;;;2.00;0.00;;;;;24.63;100.00;100343.13;5028584;28;45448;-73
2023/07/15 06:51:03;;;;;;;;;6.33;1.00;;;;;24.67;100.00;100349.22;5027141;28;61978;-74
2023/07/15 06:53:28;;;;;;;;;3.00;1.00;;;;;24.68;100.00;100362.63;5025499;28;67465;-75
2023/07/15 06:55:54;;;;;;;;;2.00;1.00;;;;;24.66;100.00;100353.75;5022321;28;45578;-75
2023/07/15 06:58:19;;;;;;;;;0.00;0.00;;;;;24.62;100.00;100371.06;5024359;28;61723;-73
2023/07/15 07:00:44;;;;;;;;;1.00;1.00;;;;;24.62;100.00;100364.81;5032272;28;68583;-75
2023/07/15 07:03:10;;;;;;;;;1.00;1.00;;;;;24.55;100.00;100366.94;5034942;28;63303;-74
2023/07/15 07:05:35;;;;;;;;;1.00;1.00;;;;;24.45;100.00;100369.28;5036004;28;61325;-75
2023/07/15 07:08:01;;;;;;;;;1.00;1.00;;;;;24.41;100.00;100369.53;5038226;28;45426;-73
2023/07/15 07:10:26;;;;;;;;;2.00;2.00;;;;;24.42;100.00;100374.84;5030091;28;69620;-74
2023/07/15 07:12:52;;;;;;;;;1.67;0.00;;;;;24.37;100.00;100358.03;5036502;28;65655;-75
2023/07/15 07:15:17;;;;;;;;;2.67;2.00;;;;;24.42;100.00;100357.78;5035856;28;45546;-78
2023/07/15 07:17:42;;;;;;;;;0.00;0.00;;;;;24.48;100.00;100358.31;5027453;28;45466;-75
2023/07/15 07:20:08;;;;;;;;;3.67;0.67;;;;;24.56;100.00;100372.28;5034858;28;46564;-75
2023/07/15 07:22:34;;;;;;;;;2.00;1.00;;;;;24.67;100.00;100363.59;5023376;28;45485;-77
2023/07/15 07:25:00;;;;;;;;;2.00;1.00;;;;;24.75;100.00;100371.25;5030055;28;62750;-77
2023/07/15 07:27:25;;;;;;;;;1.00;1.00;;;;;24.80;100.00;100359.25;5022960;28;45538;-75
2023/07/15 07:29:52;;;;;;;;;0.67;0.67;;;;;24.84;100.00;100365.38;5020073;28;46339;-75
2023/07/15 07:32:17;;;;;;;;;1.67;1.33;;;;;24.85;100.00;100371.63;5026805;28;45387;-75
2023/07/15 07:34:43;;;;;;;;;1.00;1.00;;;;;24.86;100.00;100384.16;5027785;28;45593;-74
2023/07/15 07:37:08;;;;;;;;;1.00;1.00;;;;;24.83;100.00;100390.63;5025811;28;62873;-75
2023/07/15 07:39:33;;;;;;;;;1.00;1.00;;;;;24.79;100.00;100395.31;5032875;28;69604;-75
2023/07/15 07:41:59;;;;;;;;;2.00;1.00;;;;;24.73;100.00;100398.34;5032780;28;66354;-75
2023/07/15 07:44:24;;;;;;;;;1.67;1.67;;;;;24.68;100.00;100402.25;5027338;28;64508;-75
2023/07/15 07:46:49;;;;;;;;;1.00;1.00;;;;;24.64;100.00;100396.16;5030971;28;59583;-75
2023/07/15 07:49:15;;;;;;;;;1.00;1.00;;;;;24.61;100.00;100384.63;5033297;28;72303;-76
2023/07/15 07:51:40;;;;;;;;;1.00;1.00;;;;;24.64;100.00;100396.16;5026477;28;52497;-75
2023/07/15 07:54:06;;;;;;;;;1.67;1.33;;;;;24.67;100.00;100395.13;5020542;28;45658;-75
2023/07/15 07:56:31;;;;;;;;;2.33;1.33;;;;;24.73;100.00;100392.97;5025883;28;46133;-75
2023/07/15 07:58:58;;;;;;;;;4.00;1.00;;;;;24.78;100.00;100384.59;5026967;28;46362;-75
2023/07/15 08:01:27;;;;;;;;;1.00;1.00;;;;;24.84;100.00;100389.66;5036166;28;45493;-74
2023/07/15 08:03:55;;;;;;;;;1.67;1.00;;;;;24.88;100.00;100388.56;5028267;28;45467;-74
2023/07/15 08:06:21;;;;;;;;;0.33;0.33;;;;;24.93;100.00;100401.78;5029684;28;45481;-74
2023/07/15 08:08:47;;;;;;;;;2.00;2.00;;;;;24.91;100.00;100404.56;5033511;28;46463;-74
2023/07/15 08:11:12;;;;;;;;;2.33;1.00;;;;;24.95;100.00;100394.47;5031679;28;55708;-74
2023/07/15 08:13:37;;;;;;;;;1.33;1.33;;;;;24.95;100.00;100400.75;5023237;28;64273;-73
2023/07/15 08:16:03;;;;;;;;;1.00;1.00;;;;;24.95;100.00;100402.56;5029692;28;58915;-74
2023/07/15 08:18:28;;;;;;;;;1.00;1.00;;;;;24.95;100.00;100407.97;5018166;28;47350;-76
2023/07/15 08:20:54;;;;;;;;;1.67;0.33;;;;;24.95;100.00;100406.16;5023989;28;68236;-75
2023/07/15 08:23:20;;;;;;;;;0.00;0.00;;;;;24.97;100.00;100412.31;5028573;28;45422;-74
2023/07/15 08:25:45;;;;;;;;;0.67;0.67;;;;;25.03;100.00;100408.41;5029824;28;45478;-75
2023/07/15 08:28:11;;;;;;;;;1.00;1.00;;;;;25.07;100.00;100420.84;5020974;28;47547;-76
2023/07/15 08:30:36;;;;;;;;;0.00;0.00;;;;;25.07;100.00;100421.69;5019681;28;67363;-76
2023/07/15 08:33:06;;;;;;;;;0.00;0.00;;;;;25.06;100.00;100422.66;5035514;28;45713;-74
2023/07/15 08:35:33;;;;;;;;;2.67;1.00;;;;;25.06;100.00;100430.78;5033285;28;45473;-75
2023/07/15 08:37:58;;;;;;;;;0.00;0.00;;;;;25.07;100.00;100424.41;5026019;28;45603;-74
2023/07/15 08:40:25;;;;;;;;;3.00;1.33;;;;;25.07;100.00;100429.81;5027531;28;45479;-75
2023/07/15 08:42:50;;;;;;;;;0.00;0.00;;;;;25.05;100.00;100411.91;5030291;28;45491;-75
2023/07/15 08:45:17;;;;;;;;;2.00;0.67;;;;;25.03;100.00;100411.13;5026895;28;52966;-75
2023/07/15 08:47:44;;;;;;;;;1.00;1.00;;;;;25.02;100.00;100395.88;5028339;28;46694;-74
2023/07/15 08:50:12;;;;;;;;;1.00;1.00;;;;;25.00;100.00;100417.56;5039546;28;45927;-74
2023/07/15 08:52:37;;;;;;;;;1.00;1.00;;;;;25.01;100.00;100413.91;5025401;28;45461;-75
2023/07/15 08:55:04;;;;;;;;;5.67;1.00;;;;;25.07;100.00;100410.03;5021450;28;62111;-75
2023/07/15 08:57:30;;;;;;;;;2.00;0.33;;;;;25.10;100.00;100407.16;5021187;28;47514;-74
2023/07/15 08:59:56;;;;;;;;;2.00;1.00;;;;;25.13;100.00;100408.81;5033845;28;45516;-75
2023/07/15 09:02:22;;;;;;;;;1.33;1.00;;;;;25.13;100.00;100406.97;5023292;28;45487;-77
2023/07/15 09:04:47;;;;;;;;;4.33;1.00;;;;;25.14;100.00;100419.56;5027137;28;45606;-75
2023/07/15 09:07:13;;;;;;;;;2.67;1.00;;;;;25.14;100.00;100421.34;5023359;28;45816;-75
2023/07/15 09:09:39;;;;;;;;;1.00;1.00;;;;;25.16;100.00;100417.63;5027387;28;53334;-76
2023/07/15 09:12:07;;;;;;;;;5.00;1.00;;;;;25.17;100.00;100404.97;5032781;28;45478;-74
2023/07/15 09:14:38;;;;;;;;;1.00;1.00;;;;;25.17;100.00;100408.56;5018354;28;45675;-74
2023/07/15 09:17:04;;;;;;;;;3.33;1.00;;;;;25.20;100.00;100404.81;5028970;28;47378;-74
2023/07/15 09:19:32;;;;;;;;;1.00;1.00;;;;;25.23;100.00;100410.03;5017214;28;45774;-75
2023/07/15 09:22:06;;;;;;;;;1.67;1.67;;;;;25.23;100.00;100416.31;5021681;28;47526;-76
2023/07/15 09:24:35;;;;;;;;;2.67;1.00;;;;;25.23;100.00;100429.81;5025453;28;45384;-76
2023/07/15 09:27:01;;;;;;;;;1.00;1.00;;;;;25.23;100.00;100432.53;5024424;28;47359;-74
2023/07/15 09:29:26;;;;;;;;;1.00;1.00;;;;;25.26;100.00;100426.09;5033940;28;45407;-75
2023/07/15 09:31:52;;;;;;;;;1.00;1.00;;;;;25.28;100.00;100421.47;5023323;28;45594;-75
2023/07/15 09:34:17;;;;;;;;;3.00;0.67;;;;;25.31;100.00;100415.91;5016090;28;45906;-74
2023/07/15 09:36:43;;;;;;;;;0.67;0.67;;;;;25.30;100.00;100406.91;5013034;28;45791;-74
2023/07/15 09:39:15;;;;;;;;;1.00;1.00;;;;;25.33;100.00;100419.38;5023953;28;45537;-74
2023/07/15 09:41:41;;;;;;;;;1.00;1.00;;;;;25.33;100.00;100422.94;5021997;28;45609;-74
2023/07/15 09:44:07;;;;;;;;;1.00;1.00;;;;;25.29;100.00;100421.38;5011894;28;46076;-75
2023/07/15 09:46:33;;;;;;;;;2.00;2.00;;;;;25.27;100.00;100414.31;5024568;28;47887;-75
2023/07/15 09:48:58;;;;;;;;;1.67;0.00;;;;;25.34;100.00;100400.34;5025241;28;45506;-75
2023/07/15 09:51:25;;;;;;;;;0.00;0.00;;;;;25.43;100.00;100417.88;5031758;28;53062;-75
2023/07/15 09:53:52;;;;;;;;;2.00;1.00;;;;;25.48;100.00;100404.97;5029319;28;45537;-74
2023/07/15 09:56:27;;;;;;;;;1.00;1.00;;;;;25.59;100.00;100404.34;5026767;28;45846;-74
2023/07/15 09:58:55;;;;;;;;;3.00;0.33;;;;;25.68;100.00;100406.53;5020953;28;45531;-74
2023/07/15 10:01:29;;;;;;;;;2.00;0.67;;;;;25.77;100.00;100400.59;5019491;28;45567;-73
2023/07/15 10:04:04;;;;;;;;;3.33;1.00;;;;;25.97;100.00;100399.41;5025720;28;45516;-76
2023/07/15 10:06:30;;;;;;;;;1.00;1.00;;;;;26.11;100.00;100418.41;5025002;28;46716;-75
2023/07/15 10:08:57;;;;;;;;;1.00;1.00;;;;;26.23;100.00;100413.22;5020881;28;59584;-75
2023/07/15 10:11:22;;;;;;;;;2.33;2.33;;;;;26.34;99.79;100417.00;5016717;28;45580;-75
2023/07/15 10:13:48;;;;;;;;;2.33;2.00;;;;;26.46;100.00;100403.72;5019882;28;45502;-77
2023/07/15 10:16:13;;;;;;;;;1.00;1.00;;;;;26.62;99.97;100415.34;5028256;28;72779;-75
2023/07/15 10:18:38;;;;;;;;;2.33;1.00;;;;;26.87;97.76;100426.38;5018966;28;68284;-75
2023/07/15 10:21:05;;;;;;;;;0.00;0.00;;;;;27.05;96.08;100394.50;5030940;28;45888;-75
2023/07/15 10:23:32;;;;;;;;;4.33;1.67;;;;;27.13;95.87;100389.50;5028949;28;45453;-75
2023/07/15 10:26:04;;;;;;;;;1.67;1.67;;;;;27.13;94.71;100354.28;5023213;28;46656;-75
2023/07/15 10:28:34;;;;;;;;;2.00;2.00;;;;;27.17;95.45;100319.72;5025115;28;45609;-77
2023/07/15 10:31:07;;;;;;;;;6.67;2.00;;;;;27.29;93.79;100337.88;5024049;28;45511;-75
2023/07/15 10:33:34;;;;;;;;;1.00;1.00;;;;;27.41;94.26;100366.00;5031067;28;45540;-75
2023/07/15 10:36:03;;;;;;;;;6.67;1.00;;;;;27.50;92.42;100367.25;5030711;28;47405;-75
2023/07/15 10:38:31;;;;;;;;;2.00;1.00;;;;;27.39;90.87;100363.41;5019150;28;45984;-75
2023/07/15 10:41:02;;;;;;;;;1.00;1.00;;;;;27.33;91.45;100362.94;5031441;28;45431;-75
2023/07/15 10:43:33;;;;;;;;;4.00;2.00;;;;;27.34;91.45;100381.81;5028940;28;46065;-77
2023/07/15 10:46:01;;;;;;;;;1.67;1.00;;;;;27.33;91.23;100388.22;5025147;28;46622;-76
2023/07/15 10:48:27;;;;;;;;;1.00;1.00;;;;;27.37;90.48;100373.47;5029836;28;45508;-76
2023/07/15 10:50:53;;;;;;;;;0.67;0.67;;;;;27.50;91.60;100378.97;5022791;28;65275;-74
2023/07/15 10:53:25;;;;;;;;;1.67;1.00;;;;;27.60;90.02;100376.50;5028848;28;45464;-75
2023/07/15 10:55:54;;;;;;;;;1.00;1.00;;;;;27.62;88.99;100367.28;5023766;28;47452;-75
2023/07/15 10:58:20;;;;;;;;;1.33;1.33;;;;;27.68;89.68;100376.84;5019328;28;45956;-75
2023/07/15 11:00:45;;;;;;;;;2.33;1.00;;;;;27.62;87.83;100372.72;5030005;28;45584;-75
2023/07/15 11:03:11;;;;;;;;;1.00;1.00;;;;;27.49;88.37;100366.38;5030525;28;45527;-75
2023/07/15 11:05:36;;;;;;;;;2.00;1.67;;;;;27.48;88.97;100370.03;5021922;28;69226;-75
2023/07/15 11:08:05;;;;;;;;;2.00;1.00;;;;;27.55;86.52;100374.09;5031767;28;45518;-75
2023/07/15 11:10:33;;;;;;;;;2.00;2.00;;;;;27.51;86.68;100364.41;5025121;28;45480;-75
2023/07/15 11:13:10;;;;;;;;;4.33;2.00;;;;;27.63;88.03;100374.44;5029332;28;45495;-76
2023/07/15 11:15:36;;;;;;;;;2.67;1.00;;;;;27.82;87.38;100370.53;5032570;28;45609;-75
2023/07/15 11:18:01;;;;;;;;;3.00;1.00;;;;;27.95;86.20;100357.84;5030080;28;59953;-75
2023/07/15 11:20:27;;;;;;;;;1.00;1.00;;;;;27.97;84.73;100357.75;5029350;28;45411;-77